Time;durP1;ratioP1;P1;durP2;ratioP2;P2;SDS_P1;SDS_P2;PMS_P1;PMS_P2;Temp;Humidity;BMP_temperature;BMP_pressure;BME280_temperature;BME280_humidity;BME280_pressure;Samples;Min_cycle;Max_cycle;Signal;HPM_P1;HPM_P2
2021/05/26 00:02:01;;;;;;;2.70;1.20;;;11.90;99.90;;;;;;5091531;28;20195;-81
2021/05/26 00:04:27;;;;;;;2.00;1.60;;;11.90;99.90;;;;;;5090586;28;20179;-81
2021/05/26 00:06:52;;;;;;;2.47;1.40;;;11.90;99.90;;;;;;5091651;28;20168;-81
2021/05/26 00:09:18;;;;;;;2.33;1.10;;;11.90;99.90;;;;;;5089992;28;20163;-81
2021/05/26 00:11:44;;;;;;;2.60;1.23;;;11.90;99.90;;;;;;5091517;28;20163;-81
2021/05/26 00:14:10;;;;;;;3.80;1.60;;;11.90;99.90;;;;;;5090253;28;20526;-81
2021/05/26 00:16:37;;;;;;;5.10;1.53;;;11.90;99.90;;;;;;5091160;28;20255;-81
2021/05/26 00:19:06;;;;;;;3.50;1.58;;;11.90;99.90;;;;;;5091564;28;20561;-82
2021/05/26 00:21:32;;;;;;;3.55;1.88;;;11.90;99.90;;;;;;5091233;28;20195;-82
2021/05/26 00:23:57;;;;;;;3.27;1.53;;;11.90;99.90;;;;;;5089412;28;20194;-83
2021/05/26 00:26:23;;;;;;;3.63;2.27;;;11.90;99.90;;;;;;5091547;28;20166;-81
2021/05/26 00:28:50;;;;;;;3.87;1.73;;;12.00;99.90;;;;;;5091379;28;20708;-82
2021/05/26 00:31:20;;;;;;;4.60;2.30;;;12.00;99.90;;;;;;5091278;28;20200;-82
2021/05/26 00:33:46;;;;;;;2.72;1.70;;;12.00;99.90;;;;;;5091122;28;20188;-82
2021/05/26 00:36:12;;;;;;;2.10;1.80;;;12.00;99.90;;;;;;5091800;28;20160;-81
2021/05/26 00:38:37;;;;;;;3.77;2.20;;;12.00;99.90;;;;;;5091289;28;20201;-83
2021/05/26 00:41:03;;;;;;;4.17;2.23;;;12.00;99.90;;;;;;5091599;28;20167;-83
2021/05/26 00:43:29;;;;;;;5.00;2.50;;;12.00;99.90;;;;;;5091690;28;20211;-83
2021/05/26 00:45:55;;;;;;;3.00;2.20;;;12.00;99.90;;;;;;5091807;28;20963;-83
2021/05/26 00:48:20;;;;;;;3.93;2.00;;;12.00;99.90;;;;;;5089137;28;20168;-83
2021/05/26 00:50:47;;;;;;;3.77;2.10;;;12.10;99.90;;;;;;5089439;28;20565;-83
2021/05/26 00:53:14;;;;;;;2.53;1.88;;;12.10;99.90;;;;;;5090256;28;20594;-82
2021/05/26 00:55:42;;;;;;;3.42;1.63;;;12.10;99.90;;;;;;5091972;28;20171;-84
2021/05/26 00:58:10;;;;;;;3.80;1.90;;;12.10;99.90;;;;;;5090829;28;20176;-83
2021/05/26 01:00:38;;;;;;;7.30;2.60;;;12.10;99.90;;;;;;5056801;28;20586;-83
2021/05/26 01:03:12;;;;;;;6.15;2.40;;;12.10;99.90;;;;;;5090131;28;20199;-82
2021/05/26 01:05:40;;;;;;;4.53;1.90;;;12.10;99.90;;;;;;5089890;28;20171;-83
2021/05/26 01:08:06;;;;;;;6.05;2.45;;;12.10;99.90;;;;;;5089535;28;20530;-83
2021/05/26 01:10:33;;;;;;;5.30;1.60;;;12.10;99.90;;;;;;5091300;28;20175;-83
2021/05/26 01:13:13;;;;;;;4.07;2.03;;;12.10;99.90;;;;;;5091700;28;20190;-82
2021/05/26 01:15:40;;;;;;;4.50;2.40;;;12.10;99.90;;;;;;5091879;28;20493;-83
2021/05/26 01:18:26;;;;;;;4.88;2.00;;;12.20;99.90;;;;;;5073475;28;20197;-83
2021/05/26 01:20:57;;;;;;;3.83;2.22;;;12.20;99.90;;;;;;5090862;28;20190;-84
2021/05/26 01:23:24;;;;;;;3.92;1.92;;;12.20;99.90;;;;;;5089853;28;20204;-81
2021/05/26 01:25:58;;;;;;;6.00;1.80;;;12.20;99.90;;;;;;5074112;28;20175;-82
2021/05/26 01:28:27;;;;;;;4.20;1.65;;;12.20;99.90;;;;;;5089832;28;20589;-81
2021/05/26 01:30:54;;;;;;;3.00;1.88;;;12.20;99.90;;;;;;5094643;28;20175;-81
2021/05/26 01:33:20;;;;;;;3.78;1.92;;;12.20;99.90;;;;;;5076919;28;20188;-82
2021/05/26 01:35:48;;;;;;;6.45;2.45;;;12.20;99.90;;;;;;5093590;28;20168;-82
2021/05/26 01:38:20;;;;;;;4.82;1.88;;;12.20;99.90;;;;;;5093254;28;20647;-81
2021/05/26 01:40:47;;;;;;;5.28;1.50;;;12.20;99.90;;;;;;5092867;28;20254;-81
2021/05/26 01:43:13;;;;;;;3.88;2.08;;;12.20;99.90;;;;;;5094170;28;20196;-81
2021/05/26 01:45:40;;;;;;;2.75;1.40;;;12.20;99.90;;;;;;5094613;28;20242;-82
2021/05/26 01:48:07;;;;;;;4.40;2.05;;;12.20;99.90;;;;;;5092971;28;20267;-81
2021/05/26 01:50:34;;;;;;;3.75;2.15;;;12.20;99.90;;;;;;5094487;28;20527;-82
2021/05/26 01:53:05;;;;;;;3.35;1.38;;;12.20;99.90;;;;;;5092698;28;20775;-83
2021/05/26 01:55:35;;;;;;;3.17;1.20;;;12.20;99.90;;;;;;5093364;28;20587;-83
2021/05/26 01:58:02;;;;;;;4.00;1.50;;;12.20;99.90;;;;;;5092886;28;20539;-83
2021/05/26 02:00:38;;;;;;;3.58;1.77;;;12.20;99.90;;;;;;5093076;28;20163;-83
2021/05/26 02:03:05;;;;;;;5.43;1.67;;;12.20;99.90;;;;;;5092763;28;20207;-82
2021/05/26 02:05:31;;;;;;;4.97;1.60;;;12.20;99.90;;;;;;5093185;28;20179;-83
2021/05/26 02:07:57;;;;;;;2.70;1.17;;;12.20;99.90;;;;;;5093421;28;20584;-82
2021/05/26 02:13:11;;;;;;;3.75;1.65;;;12.10;99.90;;;;;;5091801;28;20278;-82
2021/05/26 02:15:38;;;;;;;6.18;1.70;;;12.10;99.90;;;;;;5077644;28;20179;-82
2021/05/26 02:18:04;;;;;;;3.40;1.50;;;12.10;99.90;;;;;;5094066;28;20163;-82
2021/05/26 02:20:30;;;;;;;5.88;1.90;;;12.10;99.90;;;;;;5093867;28;20167;-82
2021/05/26 02:22:55;;;;;;;6.37;2.67;;;12.10;99.90;;;;;;5092165;28;20572;-82
2021/05/26 02:25:22;;;;;;;8.10;2.10;;;12.10;99.90;;;;;;5093653;28;20163;-82
2021/05/26 02:27:49;;;;;;;2.95;1.95;;;12.10;99.90;;;;;;5074245;28;20596;-82
2021/05/26 02:30:22;;;;;;;3.60;1.80;;;12.10;99.90;;;;;;5092472;28;20172;-82
2021/05/26 02:32:48;;;;;;;4.85;2.40;;;12.00;99.90;;;;;;5093644;28;20258;-82
2021/05/26 02:35:15;;;;;;;4.45;2.30;;;12.00;99.90;;;;;;5092417;28;20174;-83
2021/05/26 02:37:41;;;;;;;3.00;1.42;;;12.00;99.90;;;;;;5092072;28;20537;-83
2021/05/26 02:40:09;;;;;;;6.10;2.28;;;12.00;99.90;;;;;;5092675;28;20246;-81
2021/05/26 02:43:01;;;;;;;6.68;1.95;;;12.00;99.90;;;;;;5093002;28;20200;-80
2021/05/26 02:47:00;;;;;;;4.45;1.95;;;12.00;99.90;;;;;;5080741;28;20244;-80
2021/05/26 02:49:49;;;;;;;2.83;1.95;;;12.00;99.90;;;;;;5058282;28;20521;-80
2021/05/26 02:53:47;;;;;;;2.75;1.65;;;12.00;99.90;;;;;;5053530;28;20346;-80
2021/05/26 02:58:01;;;;;;;3.55;2.05;;;12.00;99.90;;;;;;5066701;28;20271;-80
2021/05/26 03:01:10;;;;;;;7.38;2.42;;;12.00;99.90;;;;;;5091530;28;20522;-80
2021/05/26 03:05:37;;;;;;;5.63;2.47;;;12.00;99.90;;;;;;5086117;28;20591;-80
2021/05/26 03:13:43;;;;;;;3.75;1.38;;;11.90;99.90;;;;;;5134125;27;20622;-80
2021/05/26 03:17:14;;;;;;;6.03;1.73;;;11.80;99.90;;;;;;5115244;27;20174;-80
2021/05/26 03:21:01;;;;;;;3.80;1.45;;;11.90;99.90;;;;;;5073171;28;20702;-80
2021/05/26 03:33:07;;;;;;;2.80;1.90;;;11.80;99.90;;;;;;5133316;27;20194;-80
2021/05/26 03:36:26;;;;;;;5.78;2.08;;;11.70;99.90;;;;;;5040980;28;20184;-80
2021/05/26 03:39:25;;;;;;;2.72;1.30;;;11.70;99.90;;;;;;5052073;28;20204;-80
2021/05/26 03:43:09;;;;;;;3.13;1.50;;;11.70;99.90;;;;;;5127407;27;20214;-80
2021/05/26 03:46:39;;;;;;;3.88;2.22;;;11.70;99.90;;;;;;5126363;27;20185;-80
2021/05/26 03:50:31;;;;;;;5.78;2.10;;;11.70;99.90;;;;;;5064677;28;20179;-79
2021/05/26 03:54:07;;;;;;;1.85;1.30;;;11.70;99.90;;;;;;5057565;28;20288;-80
2021/05/26 03:56:46;;;;;;;4.25;1.73;;;11.70;99.90;;;;;;5023706;28;20180;-80
2021/05/26 03:59:35;;;;;;;2.38;1.77;;;11.80;99.90;;;;;;5018261;28;20176;-80
2021/05/26 04:02:09;;;;;;;2.70;1.50;;;11.80;99.90;;;;;;5036151;28;20289;-80
2021/05/26 04:04:39;;;;;;;4.50;1.30;;;11.80;99.90;;;;;;5052232;28;20203;-80
2021/05/26 04:07:09;;;;;;;2.90;1.80;;;11.80;99.90;;;;;;5052522;28;20643;-80
2021/05/26 04:09:39;;;;;;;5.68;1.35;;;11.80;99.90;;;;;;5029389;28;20193;-79
2021/05/26 04:12:47;;;;;;;4.03;1.63;;;11.90;99.90;;;;;;5014240;28;20228;-79
2021/05/26 04:15:25;;;;;;;3.15;1.10;;;11.90;99.90;;;;;;5001401;28;20181;-80
2021/05/26 04:18:11;;;;;;;3.85;1.20;;;11.90;99.90;;;;;;5032345;28;20215;-80
2021/05/26 04:20:44;;;;;;;4.88;1.10;;;11.90;99.90;;;;;;5066981;28;20186;-80
2021/05/26 04:23:12;;;;;;;2.53;1.05;;;11.90;99.90;;;;;;5055500;28;20243;-80
2021/05/26 04:25:51;;;;;;;3.05;1.00;;;11.90;99.90;;;;;;5078279;28;20265;-79
2021/05/26 04:28:22;;;;;;;3.20;1.20;;;11.90;99.90;;;;;;5126252;28;20170;-80
2021/05/26 04:30:48;;;;;;;1.30;0.90;;;12.00;99.90;;;;;;5110826;28;20229;-80
2021/05/26 04:33:16;;;;;;;2.00;0.80;;;12.00;99.90;;;;;;5113867;28;20190;-80
2021/05/26 04:35:43;;;;;;;6.60;1.05;;;12.00;99.90;;;;;;5114509;28;20185;-80
2021/05/26 04:38:09;;;;;;;3.47;1.00;;;12.00;99.90;;;;;;5115931;28;20189;-80
2021/05/26 04:40:35;;;;;;;2.92;1.08;;;12.00;99.90;;;;;;5113803;28;20170;-81
2021/05/26 04:43:01;;;;;;;2.33;1.00;;;12.00;99.90;;;;;;5114185;28;20201;-80
2021/05/26 04:45:26;;;;;;;1.90;0.80;;;12.10;99.90;;;;;;5097969;28;20171;-80
2021/05/26 04:47:52;;;;;;;3.40;1.40;;;12.10;99.90;;;;;;5134934;28;20567;-81
2021/05/26 04:50:18;;;;;;;2.53;0.90;;;12.20;99.90;;;;;;5116525;28;20319;-81
2021/05/26 04:52:44;;;;;;;5.33;1.30;;;12.30;99.90;;;;;;5114234;28;20263;-80
2021/05/26 04:55:10;;;;;;;3.83;1.03;;;12.30;99.90;;;;;;5114002;28;20567;-80
2021/05/26 04:57:36;;;;;;;1.60;1.13;;;12.30;99.90;;;;;;5096928;28;20278;-80
2021/05/26 05:00:04;;;;;;;3.97;1.20;;;12.30;99.90;;;;;;5114134;28;20170;-80
2021/05/26 05:02:30;;;;;;;2.13;1.63;;;12.40;99.90;;;;;;5113860;28;20201;-80
2021/05/26 05:04:56;;;;;;;3.53;1.40;;;12.50;99.90;;;;;;5108710;22;20330;-76
2021/05/26 05:07:21;;;;;;;2.07;1.13;;;12.50;99.90;;;;;;5076110;28;20229;-76
2021/05/26 05:09:47;;;;;;;6.83;1.90;;;12.50;99.90;;;;;;5077935;28;20577;-75
2021/05/26 05:12:13;;;;;;;3.40;1.30;;;12.50;99.90;;;;;;5075954;28;20213;-76
2021/05/26 05:14:39;;;;;;;3.40;1.23;;;12.50;99.90;;;;;;5095179;28;20658;-75
2021/05/26 05:17:04;;;;;;;5.57;1.67;;;12.60;99.90;;;;;;5076430;28;20221;-75
2021/05/26 05:19:30;;;;;;;4.60;1.90;;;12.60;99.90;;;;;;5076853;28;20163;-75
2021/05/26 05:21:56;;;;;;;2.90;1.33;;;12.60;99.90;;;;;;5059999;28;20203;-75
2021/05/26 05:24:21;;;;;;;3.30;1.93;;;12.70;99.90;;;;;;5094707;28;20195;-75
2021/05/26 05:26:47;;;;;;;3.50;1.97;;;12.80;99.90;;;;;;5075148;28;20192;-75
2021/05/26 05:29:13;;;;;;;2.23;1.50;;;12.90;99.90;;;;;;5076588;28;20167;-75
2021/05/26 05:31:39;;;;;;;3.23;2.07;;;12.90;99.90;;;;;;5094716;28;20167;-75
2021/05/26 05:34:04;;;;;;;3.23;1.50;;;13.00;99.90;;;;;;5076441;28;20199;-76
2021/05/26 05:36:30;;;;;;;2.33;1.70;;;13.20;99.90;;;;;;5094332;28;20262;-76
2021/05/26 05:38:56;;;;;;;2.27;1.90;;;13.30;99.90;;;;;;5093910;28;20259;-76
2021/05/26 05:41:22;;;;;;;3.40;2.00;;;13.50;99.90;;;;;;5093984;28;20175;-76
2021/05/26 05:43:47;;;;;;;4.43;1.77;;;13.70;99.90;;;;;;5075669;28;20320;-76
2021/05/26 05:46:13;;;;;;;3.50;1.77;;;13.80;99.90;;;;;;5098033;28;20565;-76
2021/05/26 05:48:39;;;;;;;3.57;1.13;;;14.00;99.90;;;;;;5074738;28;20570;-75
2021/05/26 05:51:05;;;;;;;2.73;1.77;;;14.20;99.90;;;;;;5074615;28;20172;-77
2021/05/26 05:53:31;;;;;;;1.90;1.63;;;14.30;99.90;;;;;;5073485;28;20164;-76
2021/05/26 05:55:58;;;;;;;4.53;1.97;;;14.50;99.90;;;;;;5072860;28;20562;-75
2021/05/26 05:58:25;;;;;;;2.70;1.60;;;14.60;99.90;;;;;;5072730;28;20168;-76
2021/05/26 06:00:51;;;;;;;2.15;1.15;;;14.80;99.90;;;;;;5037771;28;20234;-75
2021/05/26 06:03:16;;;;;;;1.90;1.30;;;15.00;99.90;;;;;;5055588;28;20204;-76
2021/05/26 06:05:43;;;;;;;3.20;1.07;;;15.10;99.90;;;;;;5055327;28;20606;-75
2021/05/26 06:08:10;;;;;;;1.73;0.90;;;15.10;99.90;;;;;;5055182;28;21216;-75
2021/05/26 06:10:35;;;;;;;2.97;1.10;;;15.10;99.90;;;;;;5073193;28;20567;-75
2021/05/26 06:13:06;;;;;;;2.30;0.87;;;15.20;99.90;;;;;;5072856;28;20563;-76
2021/05/26 06:15:32;;;;;;;3.85;0.85;;;15.20;99.90;;;;;;5054679;28;20933;-76
2021/05/26 06:17:58;;;;;;;1.63;0.80;;;15.20;99.90;;;;;;5072066;28;20181;-75
2021/05/26 06:20:24;;;;;;;1.50;0.82;;;15.10;99.90;;;;;;5055645;28;20191;-75
2021/05/26 06:22:50;;;;;;;1.50;0.90;;;15.20;99.90;;;;;;5067112;28;20260;-75
2021/05/26 06:25:16;;;;;;;1.77;0.80;;;15.10;99.90;;;;;;5066040;28;20785;-76
2021/05/26 06:27:42;;;;;;;2.10;0.90;;;15.10;99.90;;;;;;5091823;28;20317;-76
2021/05/26 06:30:09;;;;;;;2.63;1.27;;;15.10;99.90;;;;;;5076396;28;20578;-76
2021/05/26 06:32:35;;;;;;;1.50;1.20;;;15.10;99.90;;;;;;5071357;28;20562;-76
2021/05/26 06:35:00;;;;;;;2.80;1.25;;;15.00;99.90;;;;;;5054598;28;20709;-77
2021/05/26 06:37:26;;;;;;;1.60;0.93;;;15.00;99.90;;;;;;5059603;28;20308;-76
2021/05/26 06:39:52;;;;;;;2.03;0.90;;;15.00;99.90;;;;;;5058239;28;20175;-76
2021/05/26 06:42:18;;;;;;;2.10;0.90;;;15.00;99.90;;;;;;5092720;28;20191;-76
2021/05/26 06:44:44;;;;;;;1.73;0.80;;;15.00;99.90;;;;;;5057871;28;20974;-76
2021/05/26 06:47:10;;;;;;;1.37;1.00;;;14.90;99.90;;;;;;5074207;28;20570;-75
2021/05/26 06:49:36;;;;;;;3.60;0.90;;;14.90;99.90;;;;;;5073777;28;20171;-76
2021/05/26 06:52:02;;;;;;;2.13;0.80;;;14.90;99.90;;;;;;5092709;28;20164;-75
2021/05/26 06:54:28;;;;;;;2.53;1.15;;;14.90;99.90;;;;;;5069494;28;20195;-78
2021/05/26 06:56:54;;;;;;;5.20;1.00;;;14.90;99.90;;;;;;5054148;28;20172;-77
2021/05/26 06:59:19;;;;;;;3.70;1.10;;;14.90;99.90;;;;;;5055017;28;20571;-76
2021/05/26 07:01:45;;;;;;;1.60;1.33;;;14.80;99.90;;;;;;5052843;28;20214;-77
2021/05/26 07:04:12;;;;;;;2.43;1.20;;;14.80;99.90;;;;;;5052178;28;20623;-77
2021/05/26 07:06:37;;;;;;;1.63;0.80;;;14.80;99.90;;;;;;5051097;28;20560;-77
2021/05/26 07:09:03;;;;;;;1.97;1.00;;;14.80;99.90;;;;;;5071778;28;20164;-78
2021/05/26 07:11:29;;;;;;;1.30;0.90;;;14.80;99.90;;;;;;5054173;28;20501;-77
2021/05/26 07:13:55;;;;;;;4.40;0.90;;;14.90;99.90;;;;;;5071781;28;20203;-75
2021/05/26 07:16:21;;;;;;;5.10;1.00;;;14.90;99.90;;;;;;5037005;28;20172;-75
2021/05/26 07:18:48;;;;;;;1.70;0.80;;;15.00;99.90;;;;;;5071433;28;20164;-76
2021/05/26 07:21:15;;;;;;;1.73;0.70;;;15.10;99.90;;;;;;5071499;28;20226;-76
2021/05/26 07:23:41;;;;;;;1.60;0.70;;;15.20;99.90;;;;;;5071083;28;20690;-76
2021/05/26 07:26:07;;;;;;;1.30;0.70;;;15.30;99.90;;;;;;5071350;28;20597;-75
2021/05/26 07:28:33;;;;;;;1.55;0.80;;;15.40;99.90;;;;;;5070407;28;20571;-75
2021/05/26 07:30:59;;;;;;;1.30;0.60;;;15.50;99.90;;;;;;5070354;28;20163;-75
2021/05/26 07:33:24;;;;;;;1.47;0.60;;;15.50;99.90;;;;;;5053639;28;20175;-75
2021/05/26 07:35:50;;;;;;;1.47;0.87;;;15.70;99.90;;;;;;5071547;28;20502;-76
2021/05/26 07:38:16;;;;;;;2.50;0.70;;;15.80;99.90;;;;;;5077299;28;20176;-75
2021/05/26 07:40:42;;;;;;;1.57;0.67;;;16.00;99.90;;;;;;5071800;28;20160;-76
2021/05/26 07:43:08;;;;;;;1.70;0.60;;;16.10;99.90;;;;;;5053609;28;20630;-76
2021/05/26 07:45:34;;;;;;;1.50;0.70;;;16.20;99.90;;;;;;5071396;28;20199;-76
2021/05/26 07:47:59;;;;;;;1.20;0.60;;;16.30;99.90;;;;;;5070973;28;20263;-76
2021/05/26 07:50:25;;;;;;;1.50;0.70;;;16.30;99.90;;;;;;5071311;28;20256;-75
2021/05/26 07:52:51;;;;;;;1.63;0.70;;;16.30;99.90;;;;;;5053402;28;20579;-75
2021/05/26 07:55:17;;;;;;;1.43;0.60;;;16.30;99.90;;;;;;5071000;28;20693;-75
2021/05/26 07:57:43;;;;;;;1.10;0.60;;;16.30;99.90;;;;;;5070629;28;20983;-75
2021/05/26 08:00:10;;;;;;;2.20;0.60;;;16.30;99.90;;;;;;5053312;28;20165;-75
2021/05/26 08:02:38;;;;;;;1.07;0.50;;;16.30;99.90;;;;;;5070889;28;20650;-75
2021/05/26 08:05:05;;;;;;;1.30;0.70;;;16.30;99.90;;;;;;5071277;28;20642;-75
2021/05/26 08:07:31;;;;;;;1.20;0.60;;;16.30;99.90;;;;;;5052637;28;20610;-75
2021/05/26 08:09:56;;;;;;;4.37;1.10;;;16.30;99.90;;;;;;5053287;28;20645;-75
2021/05/26 08:12:22;;;;;;;1.50;0.60;;;16.40;99.90;;;;;;5071661;28;20301;-75
2021/05/26 08:14:48;;;;;;;2.37;0.70;;;16.60;99.90;;;;;;5058638;28;20200;-75
2021/05/26 08:17:14;;;;;;;1.93;0.70;;;16.60;99.90;;;;;;5077276;28;20274;-75
2021/05/26 08:19:40;;;;;;;1.60;1.20;;;16.70;99.90;;;;;;5057342;28;20217;-75
2021/05/26 08:22:06;;;;;;;1.57;0.90;;;16.80;99.90;;;;;;5083545;28;20637;-75
2021/05/26 08:24:32;;;;;;;3.80;0.83;;;16.90;99.90;;;;;;5081351;28;20191;-75
2021/05/26 08:26:58;;;;;;;3.03;1.10;;;17.10;99.90;;;;;;5067703;28;20612;-75
2021/05/26 08:29:23;;;;;;;3.10;0.80;;;17.30;99.90;;;;;;5053823;28;20173;-75
2021/05/26 08:31:50;;;;;;;2.20;0.80;;;17.50;99.90;;;;;;5076973;28;20174;-75
2021/05/26 08:34:16;;;;;;;1.30;0.60;;;17.70;99.90;;;;;;5062539;28;20285;-76
2021/05/26 08:36:42;;;;;;;1.13;0.50;;;17.80;99.90;;;;;;5085486;28;20620;-75
2021/05/26 08:39:08;;;;;;;1.27;0.70;;;17.90;99.90;;;;;;5049001;28;20226;-75
2021/05/26 08:41:33;;;;;;;2.43;0.80;;;17.90;99.90;;;;;;5090117;28;20661;-76
2021/05/26 08:43:59;;;;;;;1.80;0.70;;;17.90;99.90;;;;;;5085622;28;20613;-76
2021/05/26 08:46:27;;;;;;;1.50;0.70;;;17.90;99.90;;;;;;5088568;28;20530;-76
2021/05/26 08:48:53;;;;;;;1.47;0.60;;;18.00;99.90;;;;;;5062187;28;20180;-76
2021/05/26 08:51:22;;;;;;;1.20;0.50;;;18.00;99.90;;;;;;5092606;28;20661;-76
2021/05/26 08:53:47;;;;;;;2.07;0.57;;;18.10;99.90;;;;;;5089272;28;20710;-76
2021/05/26 08:56:14;;;;;;;1.57;0.73;;;18.30;99.90;;;;;;5082526;28;20577;-75
2021/05/26 08:58:41;;;;;;;1.20;0.50;;;18.40;99.90;;;;;;5065638;28;20184;-76
2021/05/26 09:01:07;;;;;;;2.83;0.80;;;18.50;99.90;;;;;;5079716;28;20582;-76
2021/05/26 09:03:35;;;;;;;1.20;0.40;;;18.50;99.90;;;;;;5083609;28;21059;-76
2021/05/26 09:06:01;;;;;;;1.77;0.50;;;18.60;99.90;;;;;;5073789;28;20594;-76
2021/05/26 09:08:27;;;;;;;1.43;0.50;;;18.70;99.90;;;;;;5071666;28;20883;-78
2021/05/26 09:11:00;;;;;;;1.50;0.50;;;18.70;99.90;;;;;;5060879;28;20661;-77
2021/05/26 09:13:38;;;;;;;1.50;0.67;;;18.80;99.90;;;;;;5068688;28;20652;-77
2021/05/26 09:16:28;;;;;;;1.87;0.63;;;18.80;99.90;;;;;;5073285;28;20582;-76
2021/05/26 09:19:05;;;;;;;1.33;0.70;;;18.70;99.90;;;;;;5077885;28;20613;-77
2021/05/26 09:21:54;;;;;;;2.17;0.70;;;18.70;99.90;;;;;;5062638;28;21263;-77
2021/05/26 09:24:20;;;;;;;1.73;0.60;;;18.60;99.90;;;;;;5077328;28;20618;-76
2021/05/26 09:26:50;;;;;;;1.60;0.70;;;18.50;99.90;;;;;;5086873;28;20589;-77
2021/05/26 09:29:22;;;;;;;3.40;1.20;;;18.50;99.90;;;;;;5088248;28;20592;-76
2021/05/26 09:31:48;;;;;;;2.67;0.90;;;18.50;99.90;;;;;;5091781;28;20590;-77
2021/05/26 09:34:35;;;;;;;1.70;0.70;;;18.60;99.90;;;;;;5057891;28;20648;-77
2021/05/26 09:40:38;;;;;;;1.90;0.60;;;18.70;99.90;;;;;;5063921;28;20643;-78
2021/05/26 09:43:04;;;;;;;3.40;0.67;;;18.80;99.90;;;;;;5085967;28;20642;-78
2021/05/26 09:45:31;;;;;;;1.87;0.63;;;18.90;99.90;;;;;;5081039;28;20614;-78
2021/05/26 09:47:58;;;;;;;1.33;0.60;;;18.90;99.90;;;;;;5069822;28;20200;-77
2021/05/26 09:50:32;;;;;;;5.10;0.80;;;18.80;99.90;;;;;;5062229;28;20631;-79
2021/05/26 09:53:04;;;;;;;1.83;0.70;;;18.80;99.90;;;;;;5087356;28;21157;-77
2021/05/26 09:55:41;;;;;;;1.70;0.70;;;18.70;99.90;;;;;;5065960;28;20820;-79
2021/05/26 09:58:09;;;;;;;1.87;0.60;;;18.70;99.90;;;;;;5081193;28;20594;-78
2021/05/26 10:00:36;;;;;;;3.47;0.70;;;18.70;99.90;;;;;;5086943;28;20596;-79
2021/05/26 10:03:03;;;;;;;2.37;0.60;;;18.80;99.90;;;;;;5049122;28;20721;-79
2021/05/26 10:05:29;;;;;;;3.87;0.83;;;18.80;99.90;;;;;;5050503;28;20613;-79
2021/05/26 10:08:14;;;;;;;1.50;0.57;;;18.80;99.90;;;;;;5089117;28;20623;-79
2021/05/26 10:11:03;;;;;;;1.90;0.80;;;18.70;99.90;;;;;;5070562;28;20593;-77
2021/05/26 10:13:33;;;;;;;2.27;0.90;;;18.70;99.90;;;;;;5066332;28;20945;-78
2021/05/26 10:15:59;;;;;;;2.00;0.70;;;18.70;99.90;;;;;;5080055;28;20591;-78
2021/05/26 10:18:26;;;;;;;2.17;0.63;;;18.60;99.90;;;;;;5064312;28;20585;-78
2021/05/26 10:20:52;;;;;;;2.47;0.70;;;18.50;99.90;;;;;;5067763;28;20611;-77
2021/05/26 10:23:20;;;;;;;2.60;0.60;;;18.30;99.90;;;;;;5062045;28;20634;-78
2021/05/26 10:25:47;;;;;;;2.60;0.83;;;18.20;99.90;;;;;;5088070;28;20623;-78
2021/05/26 10:28:31;;;;;;;2.03;1.10;;;18.10;99.90;;;;;;5046985;28;20582;-78
2021/05/26 10:30:58;;;;;;;1.40;0.60;;;17.90;99.90;;;;;;5083679;28;20585;-77
2021/05/26 10:33:39;;;;;;;2.17;0.70;;;17.80;99.90;;;;;;5083233;28;21477;-78
2021/05/26 10:36:08;;;;;;;2.17;0.70;;;17.70;99.90;;;;;;5084007;28;20610;-78
2021/05/26 10:39:00;;;;;;;2.67;0.70;;;17.60;99.90;;;;;;5058534;28;20587;-78
2021/05/26 10:41:49;;;;;;;2.03;0.80;;;17.40;99.90;;;;;;5051497;28;20577;-78
2021/05/26 10:44:15;;;;;;;2.07;1.00;;;17.30;99.90;;;;;;5090570;28;20629;-78
2021/05/26 10:46:43;;;;;;;4.67;0.97;;;17.30;99.90;;;;;;5045850;28;20590;-78
2021/05/26 10:49:11;;;;;;;2.67;1.73;;;17.20;99.90;;;;;;5088742;28;20270;-77
2021/05/26 10:51:52;;;;;;;1.60;0.70;;;17.10;99.90;;;;;;5068600;28;20657;-77
2021/05/26 10:54:39;;;;;;;2.63;1.47;;;17.10;99.90;;;;;;5090092;28;20612;-77
2021/05/26 10:57:08;;;;;;;3.40;0.87;;;17.10;99.90;;;;;;5082247;28;20570;-76
2021/05/26 10:59:36;;;;;;;2.07;0.90;;;17.00;99.90;;;;;;5087299;28;21105;-77
2021/05/26 11:02:02;;;;;;;2.53;0.70;;;17.00;99.90;;;;;;5069857;28;20626;-78
2021/05/26 11:04:29;;;;;;;2.47;0.60;;;16.90;99.90;;;;;;5075281;28;20626;-78
2021/05/26 11:07:29;;;;;;;1.13;0.60;;;16.90;99.90;;;;;;5083407;28;20179;-78
2021/05/26 11:10:06;;;;;;;1.80;0.60;;;16.90;99.90;;;;;;5084767;28;20593;-78
2021/05/26 11:12:56;;;;;;;1.50;0.50;;;16.80;99.90;;;;;;5067662;28;20596;-78
2021/05/26 11:15:39;;;;;;;1.30;0.60;;;16.80;99.90;;;;;;5054782;28;20610;-78
2021/05/26 11:18:09;;;;;;;2.80;0.80;;;16.80;99.90;;;;;;5079864;28;20592;-77
2021/05/26 11:20:35;;;;;;;3.72;0.70;;;16.70;99.90;;;;;;5077756;28;20602;-77
2021/05/26 11:23:13;;;;;;;1.40;0.70;;;16.70;99.90;;;;;;5086900;28;20215;-77
2021/05/26 11:25:54;;;;;;;2.70;1.63;;;16.60;99.90;;;;;;5076414;28;20198;-77
2021/05/26 11:28:31;;;;;;;1.60;0.70;;;16.60;99.90;;;;;;5084807;28;20578;-78
2021/05/26 11:31:07;;;;;;;1.30;0.60;;;16.60;99.90;;;;;;5085367;28;20972;-77
2021/05/26 11:33:34;;;;;;;1.60;0.70;;;16.60;99.90;;;;;;5077176;28;20642;-77
2021/05/26 11:36:03;;;;;;;2.43;0.90;;;16.60;99.90;;;;;;5061217;28;20907;-78
2021/05/26 11:38:30;;;;;;;1.33;0.70;;;16.60;99.90;;;;;;5065544;28;20605;-78
2021/05/26 11:40:56;;;;;;;2.30;0.83;;;16.70;99.90;;;;;;5068777;28;20925;-78
2021/05/26 11:43:23;;;;;;;1.43;0.80;;;16.70;99.90;;;;;;5069492;28;20636;-77
2021/05/26 11:46:09;;;;;;;1.90;0.90;;;16.70;99.90;;;;;;5082473;28;20165;-77
2021/05/26 11:48:36;;;;;;;2.90;1.10;;;16.70;99.90;;;;;;5081218;28;20578;-78
2021/05/26 11:51:02;;;;;;;1.87;0.77;;;16.60;99.90;;;;;;5069401;28;20608;-78
2021/05/26 11:53:28;;;;;;;2.40;1.23;;;16.60;99.90;;;;;;5086741;28;20818;-77
2021/05/26 11:56:02;;;;;;;2.90;1.10;;;16.50;99.90;;;;;;5070657;28;20668;-77
2021/05/26 11:58:28;;;;;;;2.63;0.73;;;16.50;99.90;;;;;;5085959;28;20574;-76
2021/05/26 12:01:01;;;;;;;1.30;0.70;;;16.50;99.90;;;;;;5085881;28;20581;-77
2021/05/26 12:03:29;;;;;;;1.23;0.60;;;16.50;99.90;;;;;;5068226;28;20656;-77
2021/05/26 12:05:56;;;;;;;1.37;0.60;;;16.60;99.90;;;;;;5078929;28;20736;-77
2021/05/26 12:08:22;;;;;;;2.20;0.80;;;16.60;99.90;;;;;;5048718;28;20663;-77
2021/05/26 12:10:51;;;;;;;1.60;0.60;;;16.60;99.90;;;;;;5079893;28;21310;-78
2021/05/26 12:13:28;;;;;;;2.13;0.90;;;16.70;99.90;;;;;;5069308;28;20176;-77
2021/05/26 12:15:58;;;;;;;1.40;0.60;;;16.80;99.90;;;;;;5080551;28;20600;-77
2021/05/26 12:18:24;;;;;;;1.20;0.60;;;16.90;99.90;;;;;;5070392;28;20573;-77
2021/05/26 12:20:52;;;;;;;1.43;1.07;;;16.90;99.90;;;;;;5080062;28;20964;-77
2021/05/26 12:23:47;;;;;;;1.20;0.60;;;17.00;99.90;;;;;;5087057;28;20712;-77
2021/05/26 12:26:30;;;;;;;1.50;0.60;;;17.20;99.90;;;;;;5060601;28;20579;-78
2021/05/26 12:28:57;;;;;;;2.10;0.50;;;17.40;99.90;;;;;;5084252;28;20946;-78
2021/05/26 12:31:27;;;;;;;2.30;0.67;;;17.60;99.90;;;;;;5074337;28;21228;-76
2021/05/26 12:33:53;;;;;;;1.73;0.53;;;17.90;99.90;;;;;;5090682;28;20753;-77
2021/05/26 12:36:24;;;;;;;1.60;1.23;;;18.20;99.90;;;;;;5087703;28;20663;-76
2021/05/26 12:39:04;;;;;;;1.67;0.60;;;18.50;99.90;;;;;;5092320;28;20684;-77
2021/05/26 12:41:39;;;;;;;1.40;0.70;;;18.80;99.90;;;;;;5075480;28;20590;-77
2021/05/26 12:44:08;;;;;;;2.00;0.57;;;19.10;99.90;;;;;;5091701;28;20620;-77
2021/05/26 12:46:37;;;;;;;1.13;0.60;;;19.30;99.90;;;;;;5100525;28;20561;-78
2021/05/26 12:49:06;;;;;;;1.53;0.60;;;19.50;99.90;;;;;;5095138;28;20602;-77
2021/05/26 12:51:40;;;;;;;2.23;0.70;;;19.70;99.90;;;;;;5034798;28;21157;-77
2021/05/26 12:54:05;;;;;;;1.30;0.60;;;19.80;99.90;;;;;;5088378;28;20606;-76
2021/05/26 12:56:31;;;;;;;1.20;0.53;;;19.80;99.90;;;;;;5076875;28;20639;-77
2021/05/26 12:58:57;;;;;;;1.30;0.70;;;20.00;99.90;;;;;;5073670;28;20172;-77
2021/05/26 13:01:24;;;;;;;1.03;0.50;;;20.20;99.90;;;;;;5089648;28;20688;-77
2021/05/26 13:03:50;;;;;;;1.10;0.57;;;20.40;99.90;;;;;;5065716;28;20658;-77
2021/05/26 13:06:18;;;;;;;1.70;0.60;;;20.50;99.90;;;;;;5082865;28;20678;-77
2021/05/26 13:08:58;;;;;;;1.17;0.53;;;20.60;99.90;;;;;;5060686;28;20686;-77
2021/05/26 13:11:44;;;;;;;1.10;0.50;;;20.60;99.90;;;;;;5079170;28;20630;-77
2021/05/26 13:14:11;;;;;;;1.30;0.80;;;20.70;99.90;;;;;;5076976;28;20613;-77
2021/05/26 13:16:38;;;;;;;1.80;1.00;;;20.70;99.90;;;;;;5056612;28;21049;-77
2021/05/26 13:19:05;;;;;;;1.17;0.60;;;20.80;99.90;;;;;;5062746;28;20566;-78
2021/05/26 13:21:31;;;;;;;1.83;0.70;;;20.80;99.90;;;;;;5036139;28;20582;-77
2021/05/26 13:23:58;;;;;;;1.43;0.90;;;20.80;99.90;;;;;;5070413;28;20590;-78
2021/05/26 13:26:23;;;;;;;2.53;1.10;;;20.80;99.90;;;;;;5073488;28;21098;-77
2021/05/26 13:28:49;;;;;;;2.57;1.47;;;20.80;99.90;;;;;;5081659;28;20585;-78
2021/05/26 13:31:15;;;;;;;3.47;1.10;;;20.80;99.90;;;;;;5060543;28;20568;-76
2021/05/26 13:33:41;;;;;;;1.80;0.73;;;20.80;99.90;;;;;;5061418;28;20601;-77
2021/05/26 13:36:07;;;;;;;2.43;0.60;;;20.80;99.90;;;;;;5077407;28;20582;-79